Time;durP1;ratioP1;P1;durP2;ratioP2;P2;SDS_P1;SDS_P2;PMS_P1;PMS_P2;Temp;Humidity;BMP_temperature;BMP_pressure;BME280_temperature;BME280_humidity;BME280_pressure;Samples;Min_cycle;Max_cycle;Signal;HPM_P1;HPM_P2
2022/08/28 00:01:02;;;;;;;4.40;1.00;;;14.50;99.90;;;;;;5026828;28;20025;-77
2022/08/28 00:03:27;;;;;;;6.38;1.33;;;14.50;99.90;;;;;;5024674;28;20024;-77
2022/08/28 00:05:53;;;;;;;5.63;1.17;;;14.40;99.90;;;;;;5043112;28;20095;-78
2022/08/28 00:08:19;;;;;;;4.35;1.23;;;14.40;99.90;;;;;;5029165;28;20025;-79
2022/08/28 00:10:46;;;;;;;4.30;1.00;;;14.40;99.90;;;;;;5044714;28;20033;-76
2022/08/28 00:13:17;;;;;;;4.75;1.27;;;14.40;99.90;;;;;;5044640;28;20522;-79
2022/08/28 00:15:45;;;;;;;6.68;1.10;;;14.30;99.90;;;;;;5025967;28;20374;-78
2022/08/28 00:18:11;;;;;;;5.82;1.20;;;14.20;99.90;;;;;;5027604;28;20029;-77
2022/08/28 00:20:37;;;;;;;7.97;2.20;;;14.30;99.90;;;;;;5045360;28;20083;-78
2022/08/28 00:23:05;;;;;;;5.30;1.33;;;14.20;99.90;;;;;;5047585;28;20021;-77
2022/08/28 00:25:32;;;;;;;6.05;1.70;;;14.10;99.90;;;;;;5010849;28;20481;-77
2022/08/28 00:28:00;;;;;;;4.13;1.45;;;14.10;99.90;;;;;;5010428;28;20021;-77
2022/08/28 00:30:36;;;;;;;7.65;1.98;;;14.00;99.90;;;;;;5043926;28;20410;-78
2022/08/28 00:33:05;;;;;;;6.22;1.42;;;14.00;99.90;;;;;;5024377;28;20849;-78
2022/08/28 00:35:31;;;;;;;6.00;1.55;;;14.00;99.90;;;;;;5040278;28;20124;-77
2022/08/28 00:37:57;;;;;;;5.07;1.40;;;13.90;99.90;;;;;;5042928;28;20285;-79
2022/08/28 00:40:25;;;;;;;5.32;1.60;;;13.90;99.90;;;;;;5045407;28;20397;-77
2022/08/28 00:42:51;;;;;;;3.90;1.40;;;13.90;99.90;;;;;;5046320;28;20106;-79
2022/08/28 00:45:18;;;;;;;5.78;1.52;;;13.90;99.90;;;;;;5042397;28;20174;-78
2022/08/28 00:47:45;;;;;;;6.07;2.05;;;13.80;99.90;;;;;;5025390;28;20026;-75
2022/08/28 00:50:16;;;;;;;9.30;2.10;;;13.80;99.90;;;;;;5043410;28;20028;-78
2022/08/28 00:52:45;;;;;;;5.93;1.48;;;13.80;99.90;;;;;;5025942;28;20044;-76
2022/08/28 00:55:21;;;;;;;5.05;1.63;;;13.70;99.90;;;;;;5025464;28;20110;-79
2022/08/28 00:57:51;;;;;;;4.90;1.60;;;13.70;99.90;;;;;;5008300;28;20116;-79
2022/08/28 01:00:30;;;;;;;2.80;1.20;;;13.60;99.90;;;;;;5043965;28;20070;-78
2022/08/28 01:02:57;;;;;;;5.30;1.40;;;13.60;99.90;;;;;;5020217;28;20393;-79
2022/08/28 01:05:23;;;;;;;4.72;1.02;;;13.60;99.90;;;;;;5026381;28;20393;-76
2022/08/28 01:07:50;;;;;;;6.63;2.15;;;13.60;99.90;;;;;;5042645;28;20029;-76
2022/08/28 01:10:20;;;;;;;5.30;1.50;;;13.60;99.90;;;;;;5042530;28;20025;-78
2022/08/28 01:12:48;;;;;;;4.83;1.17;;;13.60;99.90;;;;;;5028219;28;20040;-79
2022/08/28 01:15:17;;;;;;;3.75;1.20;;;13.60;99.90;;;;;;5046238;28;20033;-77
2022/08/28 01:17:50;;;;;;;4.75;2.22;;;13.50;99.90;;;;;;5010186;28;20461;-79
2022/08/28 01:20:20;;;;;;;4.57;1.63;;;13.50;99.90;;;;;;5042747;28;20485;-78
2022/08/28 01:22:56;;;;;;;5.30;1.80;;;13.50;99.90;;;;;;5045534;28;20036;-78
2022/08/28 01:25:25;;;;;;;6.32;1.50;;;13.50;99.90;;;;;;5044580;28;20036;-79
2022/08/28 01:27:50;;;;;;;4.20;0.97;;;13.50;99.90;;;;;;5026280;28;20032;-78
2022/08/28 01:30:20;;;;;;;3.45;0.82;;;13.50;99.90;;;;;;5043045;28;20025;-78
2022/08/28 01:32:49;;;;;;;3.92;0.90;;;13.40;99.90;;;;;;5042548;28;20056;-76
2022/08/28 01:35:18;;;;;;;6.22;1.42;;;13.50;99.90;;;;;;5025109;28;20025;-76
2022/08/28 01:37:45;;;;;;;4.70;1.13;;;13.50;99.90;;;;;;5024490;28;20489;-79
2022/08/28 01:40:16;;;;;;;6.22;0.93;;;13.50;99.90;;;;;;5042299;28;20041;-79
2022/08/28 01:42:42;;;;;;;3.90;1.13;;;13.40;99.90;;;;;;5020844;28;20033;-78
2022/08/28 01:45:13;;;;;;;3.58;0.90;;;13.30;99.90;;;;;;5042714;28;20040;-77
2022/08/28 01:47:41;;;;;;;4.68;1.38;;;13.30;99.90;;;;;;5006623;28;20025;-79
2022/08/28 01:50:11;;;;;;;4.60;1.20;;;13.30;99.90;;;;;;5024813;28;20032;-79
2022/08/28 01:52:36;;;;;;;5.23;1.50;;;13.20;99.90;;;;;;5044627;28;20056;-79
2022/08/28 01:55:07;;;;;;;5.53;1.27;;;13.20;99.90;;;;;;5024903;28;20061;-79
2022/08/28 01:57:34;;;;;;;4.47;1.38;;;13.10;99.90;;;;;;5028139;28;20109;-77
2022/08/28 01:59:59;;;;;;;5.15;1.38;;;13.10;99.90;;;;;;5032430;28;20079;-76
2022/08/28 02:02:25;;;;;;;4.57;1.15;;;13.10;99.90;;;;;;5033204;28;20040;-79
2022/08/28 02:04:52;;;;;;;3.10;0.73;;;13.10;99.90;;;;;;5031140;28;20138;-78
2022/08/28 02:07:18;;;;;;;5.38;1.30;;;13.10;99.90;;;;;;5046933;28;20044;-79
2022/08/28 02:09:44;;;;;;;4.57;1.70;;;13.10;99.90;;;;;;5029262;28;20021;-79
2022/08/28 02:12:10;;;;;;;3.47;0.98;;;13.10;99.90;;;;;;5044355;28;20462;-79
2022/08/28 02:14:37;;;;;;;4.18;0.98;;;13.10;99.90;;;;;;5032515;28;20030;-78
2022/08/28 02:17:03;;;;;;;2.42;1.10;;;13.10;99.90;;;;;;5032142;28;20029;-77
2022/08/28 02:19:30;;;;;;;3.92;1.27;;;13.00;99.90;;;;;;5016095;28;20021;-79
2022/08/28 02:21:56;;;;;;;3.72;1.10;;;13.10;99.90;;;;;;5048637;28;20072;-76
2022/08/28 02:24:22;;;;;;;5.43;1.15;;;13.00;99.90;;;;;;5027866;28;20052;-79
2022/08/28 02:26:47;;;;;;;4.20;1.05;;;13.00;99.90;;;;;;5027989;28;20405;-79
2022/08/28 02:29:13;;;;;;;4.13;0.95;;;13.00;99.90;;;;;;5028747;28;20461;-79
2022/08/28 02:31:39;;;;;;;7.00;1.75;;;13.00;99.90;;;;;;5029892;28;20055;-78
2022/08/28 02:34:05;;;;;;;2.80;1.00;;;12.90;99.90;;;;;;5028609;28;20025;-77
2022/08/28 02:36:30;;;;;;;2.95;0.90;;;12.80;99.90;;;;;;5029649;28;20024;-79
2022/08/28 02:38:56;;;;;;;3.15;0.98;;;12.90;99.90;;;;;;5029112;28;20025;-79
2022/08/28 02:41:22;;;;;;;4.72;0.95;;;12.90;99.90;;;;;;5077582;28;20055;-76
2022/08/28 02:43:48;;;;;;;2.90;0.73;;;12.90;99.90;;;;;;5031212;28;20021;-77
2022/08/28 02:46:14;;;;;;;5.60;1.35;;;12.80;99.90;;;;;;5030632;28;20178;-78
2022/08/28 02:48:40;;;;;;;5.35;1.40;;;12.80;99.90;;;;;;5062682;28;20111;-78
2022/08/28 02:51:12;;;;;;;3.75;0.88;;;12.80;99.90;;;;;;5047278;28;20024;-79
2022/08/28 02:53:38;;;;;;;4.93;0.80;;;12.70;99.90;;;;;;5047999;28;20070;-79
2022/08/28 02:56:05;;;;;;;4.35;1.00;;;12.70;99.90;;;;;;5064353;28;20025;-79
2022/08/28 02:58:32;;;;;;;4.60;0.80;;;12.60;99.90;;;;;;5065701;28;20028;-78
2022/08/28 03:01:00;;;;;;;3.95;1.10;;;12.60;99.90;;;;;;5045348;28;20043;-77
2022/08/28 03:03:32;;;;;;;4.47;1.13;;;12.60;99.90;;;;;;5048395;28;20029;-79
2022/08/28 03:05:59;;;;;;;4.47;1.60;;;12.50;99.90;;;;;;5079895;28;20037;-79
2022/08/28 03:08:25;;;;;;;3.58;0.95;;;12.40;99.90;;;;;;5066550;28;20025;-76
2022/08/28 03:10:51;;;;;;;4.82;1.33;;;12.40;99.90;;;;;;5049045;28;20035;-79
2022/08/28 03:13:18;;;;;;;4.85;1.10;;;12.30;99.90;;;;;;5065947;28;20028;-79
2022/08/28 03:15:45;;;;;;;3.97;1.05;;;12.30;99.90;;;;;;5046294;28;20404;-79
2022/08/28 03:18:12;;;;;;;5.30;1.73;;;12.20;99.90;;;;;;5044836;28;20412;-79
2022/08/28 03:20:38;;;;;;;3.58;0.75;;;12.20;99.90;;;;;;5048025;28;20067;-76
2022/08/28 03:25:50;;;;;;;5.03;1.13;;;12.10;99.90;;;;;;5064869;28;20510;-79
2022/08/28 03:28:15;;;;;;;3.47;1.00;;;12.10;99.90;;;;;;5064750;28;20059;-80
2022/08/28 03:30:41;;;;;;;3.15;0.90;;;12.10;99.90;;;;;;5040857;28;20134;-79
2022/08/28 03:33:07;;;;;;;4.88;0.98;;;12.20;99.90;;;;;;5064700;28;20046;-80
2022/08/28 03:35:33;;;;;;;2.47;0.88;;;12.10;99.90;;;;;;5047610;28;20029;-75
2022/08/28 03:37:59;;;;;;;2.50;0.90;;;12.10;99.90;;;;;;5045576;28;20404;-79
2022/08/28 03:40:24;;;;;;;3.88;1.58;;;12.10;99.90;;;;;;5047870;28;20080;-80
2022/08/28 03:42:50;;;;;;;2.53;0.77;;;12.10;99.90;;;;;;5046789;28;20056;-76
2022/08/28 03:45:16;;;;;;;3.17;0.90;;;12.10;99.90;;;;;;5047306;28;20073;-78
2022/08/28 03:47:41;;;;;;;2.60;0.98;;;12.10;99.90;;;;;;5051010;28;20294;-79
2022/08/28 03:50:10;;;;;;;5.82;1.23;;;12.20;99.90;;;;;;5063264;28;20028;-79
2022/08/28 03:52:37;;;;;;;3.70;0.63;;;12.10;99.90;;;;;;5064576;28;20488;-79
2022/08/28 03:55:07;;;;;;;2.90;0.80;;;12.10;99.90;;;;;;5047053;28;20451;-79
2022/08/28 03:57:34;;;;;;;2.35;0.70;;;12.10;99.90;;;;;;5063946;28;20025;-78
2022/08/28 04:00:00;;;;;;;2.65;1.00;;;12.10;99.90;;;;;;5046083;28;20036;-77
2022/08/28 04:02:27;;;;;;;3.10;0.80;;;12.10;99.90;;;;;;5044995;28;20032;-78
2022/08/28 04:04:53;;;;;;;3.95;1.00;;;12.00;99.90;;;;;;5033936;28;20037;-78
2022/08/28 04:07:19;;;;;;;4.15;0.85;;;12.00;99.90;;;;;;5047548;28;20028;-78
2022/08/28 04:09:45;;;;;;;3.17;0.93;;;12.00;99.90;;;;;;5029809;28;20405;-79
2022/08/28 04:12:11;;;;;;;3.88;0.75;;;11.90;99.90;;;;;;5046107;28;20374;-77
2022/08/28 04:14:37;;;;;;;4.20;0.70;;;11.90;99.90;;;;;;5030166;28;20058;-79
2022/08/28 04:17:05;;;;;;;3.70;1.08;;;11.90;99.90;;;;;;5043814;28;20060;-76
2022/08/28 04:19:30;;;;;;;1.90;0.50;;;11.90;99.90;;;;;;5048169;28;20027;-79
2022/08/28 04:21:56;;;;;;;3.05;0.68;;;12.00;99.90;;;;;;5059582;28;20099;-78
2022/08/28 04:24:22;;;;;;;2.38;0.55;;;12.00;99.90;;;;;;5031817;28;20116;-77
2022/08/28 04:26:47;;;;;;;2.65;0.60;;;12.00;99.90;;;;;;5059587;28;20081;-77
2022/08/28 04:29:13;;;;;;;2.35;0.60;;;12.00;99.90;;;;;;5063895;28;20028;-79
2022/08/28 04:31:39;;;;;;;2.92;0.60;;;12.00;99.90;;;;;;5064483;28;20032;-79
2022/08/28 04:34:07;;;;;;;3.58;0.80;;;12.10;99.90;;;;;;5063072;28;20029;-75
2022/08/28 04:36:34;;;;;;;2.75;0.55;;;12.00;99.90;;;;;;5066356;28;20028;-77
2022/08/28 04:39:03;;;;;;;1.63;0.50;;;12.00;99.90;;;;;;5046915;28;20032;-79
2022/08/28 04:41:29;;;;;;;1.50;0.47;;;12.00;99.90;;;;;;5047711;28;20473;-79
2022/08/28 04:43:56;;;;;;;2.15;0.50;;;12.00;99.90;;;;;;5028572;28;20115;-78
2022/08/28 04:46:23;;;;;;;2.28;0.50;;;12.00;99.90;;;;;;5057196;28;20103;-77
2022/08/28 04:48:49;;;;;;;3.75;0.60;;;11.90;99.90;;;;;;5064652;28;20028;-77
2022/08/28 04:51:14;;;;;;;1.35;0.43;;;12.00;99.90;;;;;;5064583;28;20028;-79
2022/08/28 04:53:41;;;;;;;2.05;0.50;;;12.00;99.90;;;;;;5044465;28;20019;-79
2022/08/28 04:56:10;;;;;;;4.60;0.70;;;12.00;99.90;;;;;;5028803;28;20046;-80
2022/08/28 04:58:38;;;;;;;1.80;0.60;;;12.00;99.90;;;;;;5063493;28;20029;-79
2022/08/28 05:01:07;;;;;;;1.98;0.50;;;12.00;99.90;;;;;;5044543;28;20075;-79
2022/08/28 05:03:34;;;;;;;2.75;0.60;;;12.00;99.90;;;;;;5044192;28;20024;-78
2022/08/28 05:06:00;;;;;;;5.28;0.80;;;12.00;99.90;;;;;;5044921;28;20035;-79
2022/08/28 05:08:27;;;;;;;3.92;0.60;;;12.00;99.90;;;;;;5079621;28;20020;-79
2022/08/28 05:10:53;;;;;;;2.13;0.55;;;12.00;99.90;;;;;;5027445;28;20370;-78
2022/08/28 05:13:20;;;;;;;2.55;0.60;;;12.10;99.90;;;;;;5062803;28;20043;-79
2022/08/28 05:15:48;;;;;;;2.65;0.70;;;12.10;99.90;;;;;;5043189;28;20090;-76
2022/08/28 05:18:16;;;;;;;1.75;0.47;;;12.00;99.90;;;;;;5043671;28;20413;-77
2022/08/28 05:20:44;;;;;;;3.60;0.68;;;12.10;99.90;;;;;;5039618;28;20060;-75
2022/08/28 05:23:12;;;;;;;5.78;0.77;;;12.20;99.90;;;;;;5047426;28;20025;-77
2022/08/28 05:25:41;;;;;;;5.05;1.08;;;12.20;99.90;;;;;;5046258;28;20036;-78
2022/08/28 05:28:08;;;;;;;5.13;1.05;;;12.20;99.90;;;;;;5057879;28;20120;-75
2022/08/28 05:30:36;;;;;;;3.50;0.73;;;12.20;99.90;;;;;;5062236;28;20089;-74
2022/08/28 05:33:03;;;;;;;3.75;0.95;;;12.20;99.90;;;;;;5044179;28;20627;-77
2022/08/28 05:35:32;;;;;;;1.83;0.60;;;12.30;99.90;;;;;;5045168;28;20461;-75
2022/08/28 05:37:57;;;;;;;4.00;0.83;;;12.30;99.90;;;;;;5044020;28;20021;-75
2022/08/28 05:40:23;;;;;;;4.25;1.27;;;12.40;99.90;;;;;;5045054;28;20755;-75
2022/08/28 05:42:49;;;;;;;3.05;0.80;;;12.50;99.90;;;;;;5041849;28;20058;-75
2022/08/28 05:45:15;;;;;;;3.83;0.77;;;12.50;99.90;;;;;;5057365;28;20059;-77
2022/08/28 05:47:42;;;;;;;5.80;1.13;;;12.60;99.90;;;;;;5061436;28;20033;-77
2022/08/28 05:50:08;;;;;;;6.90;1.48;;;12.60;99.90;;;;;;5062284;28;20392;-79
2022/08/28 05:52:35;;;;;;;3.45;1.20;;;12.70;99.90;;;;;;5045823;28;20235;-77
2022/08/28 05:55:01;;;;;;;4.55;1.02;;;12.70;99.90;;;;;;5044474;28;20032;-77
2022/08/28 05:57:28;;;;;;;4.15;1.45;;;12.80;99.90;;;;;;5062437;28;20017;-76
2022/08/28 05:59:53;;;;;;;7.07;1.42;;;12.80;99.90;;;;;;5043710;28;20086;-77
2022/08/28 06:02:19;;;;;;;6.35;1.38;;;13.00;99.90;;;;;;5044976;28;20032;-75
2022/08/28 06:04:46;;;;;;;5.93;1.00;;;13.00;99.90;;;;;;5045256;28;20029;-77
2022/08/28 06:07:14;;;;;;;4.05;0.90;;;13.10;99.90;;;;;;5062953;28;20124;-75
2022/08/28 06:09:40;;;;;;;5.13;1.42;;;13.20;99.90;;;;;;5044464;28;20029;-77
2022/08/28 06:12:07;;;;;;;3.15;1.30;;;13.40;99.90;;;;;;5062666;28;20484;-76
2022/08/28 06:14:33;;;;;;;7.88;1.60;;;13.40;99.90;;;;;;5046239;28;20025;-75
2022/08/28 06:17:00;;;;;;;6.63;1.42;;;13.60;99.90;;;;;;5062745;28;20468;-76
2022/08/28 06:19:28;;;;;;;4.03;1.00;;;13.70;99.90;;;;;;5043997;28;20114;-79
2022/08/28 06:21:56;;;;;;;3.67;0.73;;;13.80;99.90;;;;;;5041859;28;20044;-77
2022/08/28 06:24:23;;;;;;;4.53;1.10;;;13.90;99.90;;;;;;5061687;28;20024;-80
2022/08/28 06:26:48;;;;;;;4.85;1.00;;;14.00;99.90;;;;;;5045243;28;20033;-75
2022/08/28 06:29:17;;;;;;;3.33;0.80;;;14.20;99.90;;;;;;5062009;28;20499;-76
2022/08/28 06:31:43;;;;;;;6.05;1.05;;;14.30;99.90;;;;;;5064423;28;20032;-75
2022/08/28 06:34:09;;;;;;;4.35;0.70;;;14.50;99.90;;;;;;5044992;28;20032;-76
2022/08/28 06:36:38;;;;;;;7.50;1.08;;;14.70;99.90;;;;;;5043994;28;20128;-77
2022/08/28 06:39:04;;;;;;;7.63;0.90;;;14.80;99.90;;;;;;5042800;28;20025;-76
2022/08/28 06:41:32;;;;;;;4.25;0.70;;;15.00;99.90;;;;;;5043784;28;20053;-76
2022/08/28 06:43:58;;;;;;;5.95;0.60;;;15.20;99.90;;;;;;5064367;28;20041;-76
2022/08/28 06:46:25;;;;;;;1.80;0.50;;;15.40;99.90;;;;;;5066217;28;20041;-74
2022/08/28 06:48:51;;;;;;;6.30;0.70;;;15.60;99.90;;;;;;5064119;28;20021;-75
2022/08/28 06:51:17;;;;;;;3.33;0.60;;;15.80;99.90;;;;;;5058176;28;20025;-80
2022/08/28 06:53:44;;;;;;;5.90;0.60;;;16.00;99.90;;;;;;5047631;28;20028;-76
2022/08/28 06:56:18;;;;;;;2.60;0.50;;;16.20;99.90;;;;;;5032632;28;20028;-75
2022/08/28 06:58:45;;;;;;;2.92;0.40;;;16.40;99.90;;;;;;5047477;28;20346;-77
2022/08/28 07:01:21;;;;;;;5.38;0.88;;;16.60;99.90;;;;;;5045092;28;20060;-77
2022/08/28 07:03:48;;;;;;;4.10;0.60;;;16.70;99.90;;;;;;5063660;28;20048;-76
2022/08/28 07:06:14;;;;;;;1.92;0.40;;;16.80;99.90;;;;;;5046070;28;20051;-79
2022/08/28 07:08:42;;;;;;;2.47;0.40;;;17.20;99.90;;;;;;5066475;28;20382;-79
2022/08/28 07:11:13;;;;;;;2.30;0.50;;;17.20;99.90;;;;;;5046328;28;20478;-79
2022/08/28 07:13:40;;;;;;;5.35;0.75;;;17.20;99.90;;;;;;5066023;28;20056;-78
2022/08/28 07:16:06;;;;;;;2.33;0.40;;;17.30;99.90;;;;;;5063747;28;20036;-76
2022/08/28 07:18:32;;;;;;;2.63;0.40;;;17.70;99.90;;;;;;5065864;28;20557;-77
2022/08/28 07:20:59;;;;;;;3.60;0.50;;;18.00;99.90;;;;;;5046670;28;20210;-74
2022/08/28 07:23:29;;;;;;;2.67;0.40;;;17.80;99.90;;;;;;5026359;28;20078;-80
2022/08/28 07:25:55;;;;;;;;;;;17.60;99.90;;;;;;5065190;28;20072;-80
2022/08/28 07:28:21;;;;;;;2.33;0.40;;;18.10;99.90;;;;;;5081430;28;19950;-79
2022/08/28 07:31:05;;;;;;;2.88;0.30;;;18.40;99.90;;;;;;5046811;28;20028;-76
2022/08/28 07:33:32;;;;;;;2.45;0.40;;;18.50;99.90;;;;;;5064703;28;20033;-75
2022/08/28 07:35:58;;;;;;;1.67;0.30;;;18.50;99.90;;;;;;5043895;28;20025;-79
2022/08/28 07:38:25;;;;;;;3.45;0.30;;;18.40;99.90;;;;;;5058648;28;20021;-78
2022/08/28 07:40:52;;;;;;;5.22;0.50;;;18.40;99.90;;;;;;5046076;28;20489;-77
2022/08/28 07:46:06;;;;;;;3.28;0.40;;;18.40;99.90;;;;;;5046552;28;20163;-78
2022/08/28 07:48:37;;;;;;;2.35;0.30;;;18.70;99.90;;;;;;5064772;28;20480;-81
2022/08/28 07:51:05;;;;;;;2.65;0.35;;;19.00;99.90;;;;;;5046867;28;20036;-77
2022/08/28 07:53:31;;;;;;;2.63;0.40;;;19.50;99.90;;;;;;5061928;28;20021;-76
2022/08/28 07:55:57;;;;;;;1.80;0.30;;;19.00;99.90;;;;;;5065443;28;20032;-79
2022/08/28 07:58:24;;;;;;;3.20;0.30;;;19.40;99.90;;;;;;5044905;28;20021;-77
2022/08/28 08:00:51;;;;;;;1.98;0.28;;;19.60;99.90;;;;;;5045341;28;20036;-79
2022/08/28 08:03:17;;;;;;;3.15;0.30;;;19.80;99.90;;;;;;5029724;28;20070;-80
2022/08/28 08:05:58;;;;;;;3.15;0.50;;;19.80;99.90;;;;;;5065162;28;20477;-77
2022/08/28 08:08:24;;;;;;;2.58;0.30;;;19.30;99.90;;;;;;5064415;28;20107;-77
2022/08/28 08:11:09;;;;;;;3.63;0.43;;;19.50;99.90;;;;;;5063051;28;20032;-79
2022/08/28 08:13:37;;;;;;;3.13;0.30;;;19.60;99.90;;;;;;5040543;28;20075;-78
2022/08/28 08:16:07;;;;;;;4.00;0.40;;;19.40;99.90;;;;;;5045714;28;20464;-76
2022/08/28 08:18:32;;;;;;;;;;;19.90;99.90;;;;;;5030007;28;20059;-78
2022/08/28 08:20:59;;;;;;;3.00;0.38;;;19.90;99.90;;;;;;5044859;28;19947;-80
2022/08/28 08:23:25;;;;;;;3.13;0.30;;;19.40;99.90;;;;;;5067898;28;20043;-79
2022/08/28 08:25:59;;;;;;;3.97;0.30;;;19.50;99.90;;;;;;5064466;28;20071;-79
2022/08/28 08:28:26;;;;;;;2.15;0.20;;;20.00;99.90;;;;;;5062936;28;20102;-76
2022/08/28 08:31:08;;;;;;;2.40;0.30;;;20.00;99.90;;;;;;5054074;28;20055;-78
2022/08/28 08:33:37;;;;;;;3.55;0.40;;;20.10;99.90;;;;;;5045293;28;20497;-78
2022/08/28 08:36:03;;;;;;;2.90;0.40;;;19.40;99.90;;;;;;5060997;28;20082;-78
2022/08/28 08:38:30;;;;;;;3.88;0.40;;;19.00;99.90;;;;;;5046817;28;20056;-76
2022/08/28 08:41:00;;;;;;;2.30;0.30;;;19.20;99.90;;;;;;5044681;28;20055;-79
2022/08/28 08:43:30;;;;;;;1.50;0.30;;;19.90;99.90;;;;;;5045149;28;20085;-79
2022/08/28 08:45:56;;;;;;;3.30;0.30;;;20.90;99.90;;;;;;5044053;28;20124;-79
2022/08/28 08:48:37;;;;;;;2.20;0.20;;;20.60;99.90;;;;;;5047009;28;20108;-76
2022/08/28 08:51:13;;;;;;;1.10;0.20;;;20.90;99.90;;;;;;5061656;28;20401;-80
2022/08/28 08:53:53;;;;;;;2.78;0.30;;;20.60;99.90;;;;;;5046176;28;20106;-78
2022/08/28 08:56:20;;;;;;;1.73;0.20;;;20.50;99.90;;;;;;5063108;28;20051;-76
2022/08/28 08:58:51;;;;;;;2.22;0.20;;;20.30;99.90;;;;;;5064787;28;20883;-77
2022/08/28 09:01:40;;;;;;;2.15;0.20;;;20.20;99.90;;;;;;5043231;28;20036;-76
2022/08/28 09:04:38;;;;;;;3.03;0.40;;;19.80;99.90;;;;;;5043135;28;20036;-78
2022/08/28 09:07:17;;;;;;;3.70;0.30;;;19.40;99.90;;;;;;5059727;28;20124;-80
2022/08/28 09:09:51;;;;;;;5.90;0.40;;;19.30;99.90;;;;;;5045089;28;20024;-76
2022/08/28 09:12:48;;;;;;;3.78;0.30;;;19.40;99.90;;;;;;5061005;28;20076;-79
2022/08/28 09:15:28;;;;;;;2.15;0.30;;;20.00;99.90;;;;;;5058885;28;20044;-77
2022/08/28 09:18:17;;;;;;;;;;;20.90;99.90;;;;;;5045909;28;20032;-78
2022/08/28 09:20:48;;;;;;;2.20;0.30;;;20.60;99.90;;;;;;5019220;28;19958;-80
2022/08/28 09:23:13;;;;;;;4.15;0.40;;;20.60;99.90;;;;;;5049265;28;20032;-79
2022/08/28 09:25:54;;;;;;;1.95;0.30;;;20.70;99.90;;;;;;5061607;28;20089;-81
2022/08/28 09:28:27;;;;;;;3.78;0.30;;;20.80;99.90;;;;;;5063367;28;20055;-76
2022/08/28 09:31:08;;;;;;;1.65;0.20;;;20.90;99.90;;;;;;5074643;28;20036;-76
2022/08/28 09:33:38;;;;;;;2.05;0.20;;;21.80;99.90;;;;;;5044034;28;20511;-77
2022/08/28 09:36:26;;;;;;;2.88;0.30;;;22.00;99.90;;;;;;5061502;28;20032;-78
2022/08/28 09:39:10;;;;;;;3.35;0.30;;;21.10;99.90;;;;;;5054743;28;20039;-76
2022/08/28 09:44:29;;;;;;;2.60;0.20;;;21.60;99.90;;;;;;5063691;28;20358;-76
2022/08/28 09:46:55;;;;;;;1.05;0.20;;;22.50;99.90;;;;;;5046178;28;20385;-79
2022/08/28 09:49:25;;;;;;;2.55;0.20;;;22.80;99.90;;;;;;5059994;28;20123;-81
2022/08/28 09:51:50;;;;;;;2.55;0.30;;;22.50;99.90;;;;;;5023726;28;20443;-79
2022/08/28 09:54:39;;;;;;;1.30;0.20;;;22.70;99.90;;;;;;5062634;28;20016;-80
2022/08/28 09:57:05;;;;;;;1.67;0.20;;;22.40;99.90;;;;;;5061793;28;20469;-75
2022/08/28 09:59:30;;;;;;;3.97;0.30;;;22.30;99.90;;;;;;5048634;28;20033;-82
2022/08/28 10:02:02;;;;;;;1.45;0.20;;;22.50;99.90;;;;;;5062864;28;20047;-78
2022/08/28 10:04:37;;;;;;;3.22;0.30;;;23.00;99.90;;;;;;5062299;28;20056;-78
2022/08/28 10:07:29;;;;;;;4.10;0.40;;;22.80;99.90;;;;;;5057713;28;20099;-79
2022/08/28 10:10:30;;;;;;;1.52;0.28;;;22.10;99.90;;;;;;5007378;28;20040;-77
2022/08/28 10:13:09;;;;;;;2.78;0.30;;;23.00;99.90;;;;;;5027373;28;20037;-76
2022/08/28 10:15:59;;;;;;;2.72;0.22;;;22.80;99.90;;;;;;5062066;28;20059;-76
2022/08/28 10:18:39;;;;;;;1.48;0.20;;;23.40;99.90;;;;;;5068171;28;20036;-77
2022/08/28 10:21:12;;;;;;;2.88;0.35;;;22.20;99.90;;;;;;5066304;28;20361;-76
2022/08/28 10:23:47;;;;;;;4.93;0.70;;;21.40;99.90;;;;;;5044354;28;20040;-77
2022/08/28 10:26:15;;;;;;;1.38;0.20;;;21.90;99.90;;;;;;5049802;28;20044;-77
2022/08/28 10:28:54;;;;;;;3.22;0.22;;;22.20;99.90;;;;;;5045160;28;20032;-76
2022/08/28 10:31:44;;;;;;;1.53;0.30;;;22.20;99.90;;;;;;5043478;28;20043;-78
2022/08/28 10:34:33;;;;;;;1.75;0.30;;;21.60;99.90;;;;;;5041958;28;20036;-78
2022/08/28 10:37:17;;;;;;;1.67;0.30;;;21.10;99.90;;;;;;5059828;28;20115;-78
2022/08/28 10:39:57;;;;;;;2.45;0.20;;;20.90;99.90;;;;;;5073077;28;20079;-77
2022/08/28 10:42:38;;;;;;;2.53;0.22;;;21.60;99.90;;;;;;5026631;28;20036;-77
2022/08/28 10:45:18;;;;;;;1.63;0.30;;;21.40;99.90;;;;;;5050469;28;20034;-75
2022/08/28 10:47:50;;;;;;;1.30;0.20;;;21.30;99.90;;;;;;5032679;28;20518;-77
2022/08/28 10:50:22;;;;;;;1.85;0.20;;;21.20;99.90;;;;;;5055098;28;20028;-76
2022/08/28 10:52:56;;;;;;;2.63;0.30;;;20.90;99.90;;;;;;5059699;28;20027;-77
2022/08/28 10:55:31;;;;;;;1.30;0.20;;;21.50;99.90;;;;;;5042681;28;20043;-77
2022/08/28 10:58:02;;;;;;;2.70;0.20;;;22.10;99.90;;;;;;5036975;28;20038;-75
2022/08/28 11:00:28;;;;;;;1.08;0.20;;;23.30;99.90;;;;;;5060708;28;20031;-78
2022/08/28 11:03:13;;;;;;;0.73;0.10;;;23.40;99.90;;;;;;5069167;28;20093;-76
2022/08/28 11:05:57;;;;;;;4.35;0.30;;;24.10;99.90;;;;;;5068642;28;20147;-76
2022/08/28 11:08:30;;;;;;;1.95;0.20;;;23.50;99.90;;;;;;5033956;28;20120;-76
2022/08/28 11:10:57;;;;;;;2.17;0.30;;;24.20;99.90;;;;;;5024558;28;20536;-77
2022/08/28 11:14:00;;;;;;;1.25;0.20;;;22.70;99.90;;;;;;5069686;28;20028;-78
2022/08/28 11:16:28;;;;;;;1.13;0.20;;;21.90;99.90;;;;;;5018410;28;20425;-81
2022/08/28 11:19:02;;;;;;;1.63;0.20;;;22.40;99.90;;;;;;5042496;28;20039;-79
2022/08/28 11:21:33;;;;;;;2.33;0.20;;;23.00;99.90;;;;;;5025893;28;20047;-78
2022/08/28 11:24:20;;;;;;;2.97;0.30;;;23.30;99.90;;;;;;5055693;28;20099;-78
2022/08/28 11:26:57;;;;;;;3.42;0.38;;;22.50;99.90;;;;;;5036768;28;20044;-77
2022/08/28 11:30:00;;;;;;;1.17;0.20;;;22.40;99.90;;;;;;5072348;28;20029;-76
2022/08/28 11:32:27;;;;;;;0.77;0.17;;;23.00;99.90;;;;;;5045689;28;20122;-75
2022/08/28 11:35:10;;;;;;;1.58;0.20;;;23.20;99.90;;;;;;5054558;28;20024;-78
2022/08/28 11:37:39;;;;;;;3.20;0.30;;;23.10;99.90;;;;;;5040957;28;20124;-76
2022/08/28 11:40:27;;;;;;;2.05;0.30;;;23.70;99.90;;;;;;5068012;28;20135;-76
2022/08/28 11:43:15;;;;;;;1.40;0.20;;;23.70;99.90;;;;;;5072919;28;20381;-76
2022/08/28 11:45:46;;;;;;;1.20;0.30;;;23.70;99.90;;;;;;5070034;28;20898;-78
2022/08/28 11:48:24;;;;;;;1.90;0.25;;;23.40;99.90;;;;;;5042105;28;20115;-77
2022/08/28 11:51:03;;;;;;;2.08;0.30;;;23.00;99.90;;;;;;5070733;28;20028;-76
2022/08/28 11:53:56;;;;;;;1.65;0.20;;;23.00;99.90;;;;;;5040109;28;20047;-78
2022/08/28 11:56:43;;;;;;;1.88;0.20;;;22.30;99.90;;;;;;5067300;28;20031;-80
2022/08/28 11:59:19;;;;;;;2.97;0.30;;;22.00;99.90;;;;;;5039536;28;20036;-79
2022/08/28 12:01:45;;;;;;;0.95;0.20;;;22.20;99.90;;;;;;5023946;28;20680;-80
2022/08/28 12:04:14;;;;;;;1.25;0.20;;;22.70;99.90;;;;;;5068228;28;20199;-76
2022/08/28 12:06:50;;;;;;;1.15;0.10;;;23.50;99.90;;;;;;5071818;28;20051;-76
2022/08/28 12:09:44;;;;;;;0.93;0.20;;;24.20;99.90;;;;;;5052529;28;20641;-76
2022/08/28 12:12:32;;;;;;;3.20;0.20;;;23.50;99.90;;;;;;5063455;28;20130;-77
2022/08/28 12:15:01;;;;;;;0.98;0.28;;;23.50;99.90;;;;;;5067353;28;20118;-76
2022/08/28 12:17:42;;;;;;;2.45;0.22;;;22.50;99.90;;;;;;5069784;28;20073;-76
2022/08/28 12:20:21;;;;;;;1.08;0.20;;;22.10;99.90;;;;;;5041973;28;20043;-75
2022/08/28 12:22:51;;;;;;;2.40;0.20;;;22.10;99.90;;;;;;5069891;28;20020;-75
2022/08/28 12:25:32;;;;;;;0.73;0.20;;;22.60;99.90;;;;;;5056431;28;20028;-76
2022/08/28 12:28:04;;;;;;;1.20;0.20;;;22.80;99.90;;;;;;5069698;28;20028;-78
2022/08/28 12:30:34;;;;;;;2.10;0.20;;;23.00;99.90;;;;;;5031492;28;20057;-77
2022/08/28 12:33:22;;;;;;;0.88;0.20;;;23.10;99.90;;;;;;5040963;28;20024;-75
2022/08/28 12:35:49;;;;;;;2.20;0.30;;;22.90;99.90;;;;;;5067888;28;20454;-75
2022/08/28 12:38:20;;;;;;;0.70;0.20;;;22.80;99.90;;;;;;5052319;28;20029;-80
2022/08/28 12:40:49;;;;;;;2.72;0.30;;;23.10;99.90;;;;;;5035546;28;20062;-77
2022/08/28 12:43:33;;;;;;;1.70;0.30;;;23.30;99.90;;;;;;5041384;28;20035;-75
2022/08/28 12:46:03;;;;;;;1.88;0.20;;;24.10;99.90;;;;;;5039025;28;20290;-77
2022/08/28 12:48:54;;;;;;;1.05;0.20;;;24.60;99.90;;;;;;5038455;28;20066;-76
2022/08/28 12:51:24;;;;;;;3.67;0.20;;;23.80;99.90;;;;;;5063627;28;20484;-77
2022/08/28 12:53:59;;;;;;;2.72;0.20;;;22.90;99.90;;;;;;5038708;28;20067;-75
2022/08/28 12:56:28;;;;;;;1.67;0.20;;;22.90;99.90;;;;;;5037768;28;20417;-75
2022/08/28 12:58:55;;;;;;;;;;;23.10;99.90;;;;;;5041422;28;20044;-77
2022/08/28 13:01:28;;;;;;;1.08;0.10;;;22.70;99.90;;;;;;5036651;28;19931;-77
2022/08/28 13:03:57;;;;;;;2.42;0.20;;;23.00;99.90;;;;;;5039309;28;20020;-77
2022/08/28 13:06:37;;;;;;;0.80;0.20;;;23.10;99.90;;;;;;5050478;28;20179;-76
2022/08/28 13:09:06;;;;;;;1.10;0.20;;;23.20;99.90;;;;;;5071900;28;20020;-77
2022/08/28 13:11:36;;;;;;;1.67;0.20;;;23.00;99.90;;;;;;5067728;28;20119;-76
2022/08/28 13:14:03;;;;;;;2.08;0.20;;;23.00;99.90;;;;;;5068554;28;20029;-75